Time;durP1;ratioP1;P1;durP2;ratioP2;P2;SDS_P1;SDS_P2;PMS_P1;PMS_P2;Temp;Humidity;BMP_temperature;BMP_pressure;BME280_temperature;BME280_humidity;BME280_pressure;Samples;Min_cycle;Max_cycle;Signal;HPM_P1;HPM_P2
2023/08/10 00:01:19;;;;;;;17.83;10.70;;;11.70;88.50;;;;;;5014512;28;20176;-92
2023/08/10 00:03:44;;;;;;;15.53;9.67;;;11.60;88.60;;;;;;4996988;28;20185;-92
2023/08/10 00:06:13;;;;;;;16.00;10.07;;;11.60;89.00;;;;;;5014415;28;20220;-92
2023/08/10 00:08:38;;;;;;;14.27;9.43;;;11.60;89.20;;;;;;5014417;28;20188;-92
2023/08/10 00:11:04;;;;;;;19.37;10.30;;;11.60;89.20;;;;;;5014616;28;20169;-92
2023/08/10 00:13:30;;;;;;;13.37;10.40;;;11.60;89.20;;;;;;4997325;28;20185;-92
2023/08/10 00:15:56;;;;;;;15.47;10.33;;;11.60;89.10;;;;;;5014437;28;20300;-92
2023/08/10 00:18:21;;;;;;;11.77;10.20;;;11.60;89.10;;;;;;4996441;28;20192;-92
2023/08/10 00:20:47;;;;;;;14.30;11.50;;;11.70;88.90;;;;;;5013983;28;20181;-92
2023/08/10 00:23:13;;;;;;;11.97;10.67;;;11.60;88.80;;;;;;4997079;28;20257;-92
2023/08/10 00:25:39;;;;;;;15.00;10.63;;;11.60;88.70;;;;;;4996164;28;20299;-92
2023/08/10 00:28:04;;;;;;;15.33;11.80;;;11.50;88.50;;;;;;5014165;28;20184;-92
2023/08/10 00:30:30;;;;;;;16.37;11.80;;;11.50;88.40;;;;;;5014023;28;20173;-92
2023/08/10 00:32:56;;;;;;;16.47;12.13;;;11.40;88.40;;;;;;5014447;28;20189;-93
2023/08/10 00:35:22;;;;;;;16.40;11.27;;;11.50;88.50;;;;;;4996696;28;20208;-92
2023/08/10 00:37:49;;;;;;;13.03;10.80;;;11.50;88.70;;;;;;4997615;28;20664;-92
2023/08/10 00:40:15;;;;;;;12.70;10.37;;;11.50;89.00;;;;;;4997612;28;20185;-92
2023/08/10 00:42:40;;;;;;;14.90;10.43;;;11.50;89.30;;;;;;4996861;28;20181;-92
2023/08/10 00:45:09;;;;;;;14.43;9.73;;;11.50;89.40;;;;;;5014845;28;20235;-92
2023/08/10 00:47:35;;;;;;;11.70;10.07;;;11.40;89.50;;;;;;5014480;28;20173;-92
2023/08/10 00:50:02;;;;;;;11.33;9.70;;;11.30;89.80;;;;;;4996902;28;20173;-92
2023/08/10 00:52:28;;;;;;;13.77;9.37;;;11.30;89.90;;;;;;5014589;28;20173;-92
2023/08/10 00:54:54;;;;;;;13.80;9.23;;;11.30;90.00;;;;;;4997403;28;20203;-92
2023/08/10 00:57:20;;;;;;;18.70;9.37;;;11.30;90.10;;;;;;5014921;28;20550;-92
2023/08/10 00:59:47;;;;;;;11.27;9.10;;;11.20;90.40;;;;;;4997784;28;20181;-92
2023/08/10 01:02:12;;;;;;;16.47;9.50;;;11.20;90.60;;;;;;5014881;28;20205;-92
2023/08/10 01:04:39;;;;;;;10.37;9.47;;;11.20;90.60;;;;;;5017258;28;20205;-93
2023/08/10 01:07:33;;;;;;;12.90;8.50;;;11.20;90.70;;;;;;5018661;28;20165;-92
2023/08/10 01:10:21;;;;;;;12.90;9.37;;;11.30;90.80;;;;;;5000807;28;20162;-92
2023/08/10 01:13:25;;;;;;;17.53;9.17;;;11.30;90.80;;;;;;5018434;28;20228;-92
2023/08/10 01:15:57;;;;;;;18.77;9.37;;;11.30;90.90;;;;;;5000540;28;20208;-92
2023/08/10 01:18:27;;;;;;;11.87;8.70;;;11.40;91.00;;;;;;5000449;28;20169;-92
2023/08/10 01:20:59;;;;;;;15.20;9.10;;;11.30;91.00;;;;;;5017701;28;20181;-92
2023/08/10 01:23:37;;;;;;;11.80;9.00;;;11.30;91.10;;;;;;5000182;28;20181;-92
2023/08/10 01:26:04;;;;;;;10.47;9.43;;;11.30;91.10;;;;;;4999773;28;20243;-92
2023/08/10 01:28:32;;;;;;;10.53;9.43;;;11.30;91.20;;;;;;5017463;28;20166;-92
2023/08/10 01:30:59;;;;;;;13.60;8.77;;;11.30;91.30;;;;;;5017556;28;20166;-92
2023/08/10 01:33:26;;;;;;;12.20;9.37;;;11.30;91.20;;;;;;4999607;28;20193;-92
2023/08/10 01:35:52;;;;;;;11.40;9.57;;;11.30;91.10;;;;;;5000113;28;20204;-93
2023/08/10 01:38:18;;;;;;;17.20;9.63;;;11.30;91.00;;;;;;4999561;28;20174;-92
2023/08/10 01:40:43;;;;;;;12.77;9.63;;;11.20;90.70;;;;;;5000271;28;20539;-92
2023/08/10 01:43:09;;;;;;;21.70;10.30;;;11.10;90.60;;;;;;4999862;28;20268;-92
2023/08/10 01:45:35;;;;;;;18.00;10.00;;;11.10;90.40;;;;;;5017748;28;20205;-92
2023/08/10 01:48:15;;;;;;;11.03;9.50;;;11.10;90.50;;;;;;5000126;28;20657;-92
2023/08/10 01:50:44;;;;;;;14.93;10.57;;;11.10;90.40;;;;;;5000094;28;20248;-92
2023/08/10 01:53:15;;;;;;;12.47;9.80;;;11.10;90.30;;;;;;4999935;28;20216;-92
2023/08/10 01:55:41;;;;;;;13.53;10.27;;;11.10;90.20;;;;;;5017666;28;20200;-92
2023/08/10 01:58:07;;;;;;;15.70;10.57;;;11.00;90.10;;;;;;5000262;28;20281;-92
2023/08/10 02:00:37;;;;;;;13.70;10.40;;;11.00;90.10;;;;;;5018278;28;20209;-92
2023/08/10 02:03:05;;;;;;;14.43;10.00;;;11.00;90.10;;;;;;5000671;28;20552;-92
2023/08/10 02:05:32;;;;;;;12.47;9.87;;;11.00;90.00;;;;;;4999735;28;20236;-92
2023/08/10 02:07:57;;;;;;;11.23;10.13;;;11.00;89.90;;;;;;4999184;28;20177;-92
2023/08/10 02:10:23;;;;;;;16.97;10.30;;;10.90;89.90;;;;;;4999844;28;20176;-92
2023/08/10 02:12:49;;;;;;;10.87;9.73;;;10.90;89.80;;;;;;5017172;28;20182;-92
2023/08/10 02:15:15;;;;;;;13.97;9.77;;;10.90;89.80;;;;;;4999713;28;20213;-92
2023/08/10 02:17:41;;;;;;;12.83;9.60;;;11.00;89.80;;;;;;5017992;28;20178;-92
2023/08/10 02:20:12;;;;;;;15.03;9.70;;;11.00;89.70;;;;;;4999724;28;20239;-91
2023/08/10 02:22:42;;;;;;;19.97;9.77;;;11.00;89.70;;;;;;5017066;28;20195;-91
2023/08/10 02:25:09;;;;;;;14.87;9.80;;;11.00;89.60;;;;;;4998921;28;20213;-92
2023/08/10 02:27:35;;;;;;;12.47;10.17;;;11.00;89.60;;;;;;4999600;28;20259;-92
2023/08/10 02:30:00;;;;;;;18.40;10.43;;;11.00;89.50;;;;;;4999486;28;20173;-92
2023/08/10 02:32:26;;;;;;;14.40;10.23;;;11.00;89.50;;;;;;5017131;28;20196;-92
2023/08/10 02:34:53;;;;;;;15.90;10.40;;;11.00;89.50;;;;;;5016994;28;20312;-92
2023/08/10 02:37:18;;;;;;;13.50;10.90;;;11.00;89.50;;;;;;4999378;28;20684;-92
2023/08/10 02:39:44;;;;;;;12.60;10.27;;;11.00;89.40;;;;;;4999413;28;20630;-92
2023/08/10 02:42:10;;;;;;;14.37;10.07;;;11.00;89.50;;;;;;4998729;28;20204;-91
2023/08/10 02:44:36;;;;;;;15.13;10.70;;;11.00;89.50;;;;;;4998642;28;20283;-92
2023/08/10 02:47:02;;;;;;;20.43;10.57;;;11.10;89.60;;;;;;5015905;28;20209;-91
2023/08/10 02:49:27;;;;;;;13.57;10.10;;;11.10;89.70;;;;;;4998442;28;20273;-92
2023/08/10 02:51:53;;;;;;;17.17;11.87;;;11.20;89.90;;;;;;5015606;28;20636;-92
2023/08/10 02:54:19;;;;;;;17.03;9.50;;;11.20;90.00;;;;;;4998101;28;20262;-92
2023/08/10 02:56:44;;;;;;;24.90;9.60;;;11.30;90.20;;;;;;5015848;28;20592;-91
2023/08/10 02:59:10;;;;;;;17.73;8.40;;;11.40;90.30;;;;;;5015952;28;20181;-91
2023/08/10 03:01:35;;;;;;;12.63;8.53;;;11.50;90.50;;;;;;4998272;28;20181;-92
2023/08/10 03:04:01;;;;;;;15.23;8.00;;;11.50;90.50;;;;;;4998062;28;20201;-91
2023/08/10 03:06:28;;;;;;;9.80;8.10;;;11.50;90.50;;;;;;4998128;28;20681;-92
2023/08/10 03:08:53;;;;;;;15.67;8.30;;;11.50;90.60;;;;;;5015344;28;20162;-92
2023/08/10 03:11:19;;;;;;;12.87;7.83;;;11.60;90.60;;;;;;5015476;28;20172;-91
2023/08/10 03:13:45;;;;;;;18.70;8.73;;;11.50;90.60;;;;;;4998559;28;20235;-92
2023/08/10 03:16:10;;;;;;;13.73;8.60;;;11.50;90.50;;;;;;4999205;28;20199;-92
2023/08/10 03:18:36;;;;;;;15.83;9.40;;;11.60;90.40;;;;;;5015812;28;20177;-91
2023/08/10 03:21:01;;;;;;;16.70;8.30;;;11.60;90.30;;;;;;5016011;28;20196;-92
2023/08/10 03:23:27;;;;;;;13.60;8.30;;;11.60;90.30;;;;;;5015123;28;20172;-91
2023/08/10 03:25:52;;;;;;;20.03;8.30;;;11.60;90.20;;;;;;4997286;28;20205;-91
2023/08/10 03:28:18;;;;;;;19.53;8.37;;;11.60;90.10;;;;;;5016570;28;20279;-92
2023/08/10 03:30:43;;;;;;;14.13;8.30;;;11.60;90.20;;;;;;4997940;28;20181;-92
2023/08/10 03:33:09;;;;;;;16.53;8.80;;;11.60;90.00;;;;;;5015421;28;20200;-91
2023/08/10 03:35:34;;;;;;;21.10;8.40;;;11.60;89.90;;;;;;4997699;28;20200;-92
2023/08/10 03:38:00;;;;;;;11.07;8.43;;;11.60;89.80;;;;;;4997997;28;20181;-92
2023/08/10 03:40:26;;;;;;;19.53;8.50;;;11.50;89.90;;;;;;4998426;28;20268;-91
2023/08/10 03:42:51;;;;;;;9.80;8.27;;;11.50;90.00;;;;;;4997744;28;20193;-92
2023/08/10 03:45:17;;;;;;;24.60;9.47;;;11.50;90.00;;;;;;4997718;28;20304;-91
2023/08/10 03:47:42;;;;;;;14.53;9.37;;;11.40;90.00;;;;;;5014947;28;20170;-92
2023/08/10 03:50:08;;;;;;;11.63;8.73;;;11.40;90.00;;;;;;5015392;28;20177;-91
2023/08/10 03:52:34;;;;;;;11.40;9.10;;;11.40;90.10;;;;;;5015756;28;20173;-92
2023/08/10 03:55:00;;;;;;;16.40;9.27;;;11.30;90.20;;;;;;4997652;28;20205;-92
2023/08/10 03:57:25;;;;;;;14.93;9.27;;;11.20;90.30;;;;;;4997882;28;20700;-91
2023/08/10 03:59:51;;;;;;;13.13;9.87;;;11.20;90.40;;;;;;4998463;28;20760;-92
2023/08/10 04:02:16;;;;;;;12.40;9.83;;;11.20;90.40;;;;;;4997887;28;20181;-92
2023/08/10 04:04:42;;;;;;;10.57;9.27;;;11.20;90.30;;;;;;4997514;28;20711;-91
2023/08/10 04:07:07;;;;;;;11.10;9.23;;;11.10;90.30;;;;;;5015828;28;20177;-92
2023/08/10 04:09:34;;;;;;;12.83;9.50;;;11.00;90.30;;;;;;5016017;28;20180;-92
2023/08/10 04:11:59;;;;;;;12.50;9.67;;;11.10;90.30;;;;;;4998038;28;20174;-92
2023/08/10 04:14:25;;;;;;;15.00;9.77;;;11.10;90.30;;;;;;4998492;28;20201;-92
2023/08/10 04:16:51;;;;;;;22.37;17.67;;;11.10;90.40;;;;;;4997800;28;20688;-92
2023/08/10 04:19:17;;;;;;;21.03;17.17;;;11.10;90.50;;;;;;4997674;28;20273;-92
2023/08/10 04:21:44;;;;;;;19.93;16.00;;;11.20;90.60;;;;;;4997377;28;20177;-91
2023/08/10 04:24:10;;;;;;;18.43;15.23;;;11.30;90.70;;;;;;4997111;28;20696;-91
2023/08/10 04:26:36;;;;;;;22.60;17.67;;;11.30;90.80;;;;;;5015139;28;20688;-92
2023/08/10 04:29:03;;;;;;;22.20;16.53;;;11.30;90.90;;;;;;4996871;28;20196;-91
2023/08/10 04:31:28;;;;;;;20.33;15.73;;;11.30;90.90;;;;;;4997611;28;20174;-92
2023/08/10 04:33:54;;;;;;;16.63;15.00;;;11.40;91.00;;;;;;4997124;28;20300;-92
2023/08/10 04:36:19;;;;;;;24.80;16.77;;;11.30;91.00;;;;;;4997114;28;20220;-92
2023/08/10 04:38:45;;;;;;;18.63;16.73;;;11.40;91.10;;;;;;5017543;28;20188;-92
2023/08/10 04:41:11;;;;;;;20.10;17.93;;;11.40;91.20;;;;;;5001353;28;20189;-91
2023/08/10 04:43:36;;;;;;;11.93;8.93;;;11.40;91.30;;;;;;5001418;28;20210;-92
2023/08/10 04:46:02;;;;;;;15.37;9.43;;;11.40;91.40;;;;;;5000989;28;20263;-91
2023/08/10 04:48:27;;;;;;;17.57;15.77;;;11.50;91.40;;;;;;5001003;28;20208;-92
2023/08/10 04:50:53;;;;;;;19.27;16.50;;;11.60;91.50;;;;;;5018321;28;20176;-91
2023/08/10 04:53:18;;;;;;;24.23;18.07;;;11.70;91.50;;;;;;5000694;28;20177;-92
2023/08/10 04:55:44;;;;;;;13.27;9.23;;;11.70;91.60;;;;;;5018448;28;20220;-91
2023/08/10 04:58:10;;;;;;;18.37;9.50;;;11.70;91.60;;;;;;5000690;28;20675;-91
2023/08/10 05:00:35;;;;;;;19.80;15.37;;;11.70;91.60;;;;;;5017999;28;20711;-92
2023/08/10 05:03:01;;;;;;;18.47;16.80;;;11.70;91.70;;;;;;5018255;28;20181;-92
2023/08/10 05:05:27;;;;;;;17.50;9.57;;;11.70;91.70;;;;;;5000390;28;20205;-92
2023/08/10 05:07:52;;;;;;;15.07;9.50;;;11.70;91.80;;;;;;5017835;28;20637;-91
2023/08/10 05:10:18;;;;;;;12.23;9.73;;;11.70;91.80;;;;;;5000479;28;20185;-92
2023/08/10 05:12:44;;;;;;;14.70;9.27;;;11.70;91.80;;;;;;5000852;28;20173;-92
2023/08/10 05:15:10;;;;;;;17.07;9.87;;;11.70;92.00;;;;;;5000582;28;20197;-92
2023/08/10 05:17:37;;;;;;;17.50;10.10;;;11.80;92.00;;;;;;5000564;28;20194;-92
2023/08/10 05:20:10;;;;;;;14.77;10.60;;;11.80;92.10;;;;;;5017893;28;20170;-91
2023/08/10 05:22:37;;;;;;;17.73;9.90;;;11.90;92.30;;;;;;5000284;28;20209;-92
2023/08/10 05:25:04;;;;;;;15.30;10.10;;;12.00;92.30;;;;;;5000353;28;20288;-92
2023/08/10 05:27:29;;;;;;;18.03;10.43;;;12.10;92.40;;;;;;5000533;28;20177;-92
2023/08/10 05:29:55;;;;;;;14.67;10.73;;;12.10;92.40;;;;;;5000732;28;20273;-92
2023/08/10 05:32:20;;;;;;;17.23;10.60;;;12.10;92.40;;;;;;5000966;28;20564;-92
2023/08/10 05:34:46;;;;;;;17.40;10.30;;;12.20;92.30;;;;;;5000335;28;20689;-92
2023/08/10 05:37:11;;;;;;;21.37;10.87;;;12.20;92.30;;;;;;5018047;28;20181;-92
2023/08/10 05:39:38;;;;;;;16.93;10.97;;;12.20;92.20;;;;;;5000990;28;20178;-92
2023/08/10 05:42:04;;;;;;;18.77;11.07;;;12.20;92.10;;;;;;5000305;28;20281;-92
2023/08/10 05:44:29;;;;;;;15.97;11.03;;;12.20;92.20;;;;;;5017236;28;20220;-92
2023/08/10 05:46:55;;;;;;;18.73;11.40;;;12.20;92.20;;;;;;4999682;28;20213;-92
2023/08/10 05:49:27;;;;;;;17.37;11.37;;;12.30;92.30;;;;;;4998596;28;20176;-92
2023/08/10 05:51:52;;;;;;;23.17;11.20;;;12.30;92.30;;;;;;5016804;28;20265;-92
2023/08/10 05:54:18;;;;;;;14.70;11.50;;;12.40;92.30;;;;;;4999290;28;20201;-92
2023/08/10 05:56:43;;;;;;;16.87;10.63;;;12.50;92.40;;;;;;4999124;28;20653;-92
2023/08/10 05:59:09;;;;;;;14.20;10.97;;;12.70;92.30;;;;;;5016629;28;20808;-92
2023/08/10 06:01:34;;;;;;;17.13;10.90;;;12.80;92.10;;;;;;4999514;28;20205;-92
2023/08/10 06:04:02;;;;;;;12.40;11.13;;;12.90;91.90;;;;;;4998773;28;20284;-91
2023/08/10 06:06:29;;;;;;;16.73;10.50;;;13.00;91.90;;;;;;4998970;28;20291;-91
2023/08/10 06:08:54;;;;;;;12.30;11.10;;;13.10;91.80;;;;;;4998590;28;20192;-91
2023/08/10 06:11:20;;;;;;;20.87;11.23;;;13.20;91.40;;;;;;4998500;28;20209;-91
2023/08/10 06:13:45;;;;;;;13.20;11.83;;;13.10;91.00;;;;;;5016394;28;20212;-92
2023/08/10 06:16:11;;;;;;;16.80;11.97;;;13.20;90.90;;;;;;4998656;28;20185;-92
2023/08/10 06:18:37;;;;;;;13.00;11.47;;;13.20;90.80;;;;;;5016312;28;20181;-92
2023/08/10 06:21:03;;;;;;;17.17;11.47;;;13.20;90.60;;;;;;4998527;28;20311;-91
2023/08/10 06:23:29;;;;;;;19.83;12.57;;;13.20;90.20;;;;;;4998562;28;20186;-91
2023/08/10 06:25:55;;;;;;;21.23;13.20;;;13.30;90.30;;;;;;4998043;28;20220;-91
2023/08/10 06:28:20;;;;;;;14.03;12.60;;;13.50;90.10;;;;;;4999251;28;20177;-89
2023/08/10 06:30:46;;;;;;;17.37;12.53;;;13.50;89.60;;;;;;4998152;28;20209;-91
2023/08/10 06:33:12;;;;;;;18.17;13.37;;;13.60;89.60;;;;;;5015399;28;20197;-90
2023/08/10 06:35:40;;;;;;;16.13;12.37;;;13.70;89.40;;;;;;5015345;28;20201;-91
2023/08/10 06:38:06;;;;;;;14.13;11.67;;;13.80;89.40;;;;;;5016396;28;20178;-91
2023/08/10 06:40:32;;;;;;;13.37;12.07;;;13.90;88.30;;;;;;5016539;28;20591;-91
2023/08/10 06:42:58;;;;;;;12.53;11.37;;;14.10;87.50;;;;;;4999846;28;20653;-92
2023/08/10 06:45:24;;;;;;;14.27;12.87;;;14.20;87.60;;;;;;4998991;28;20219;-92
2023/08/10 06:47:49;;;;;;;14.83;13.10;;;14.40;87.60;;;;;;4998871;28;20189;-92
2023/08/10 06:50:16;;;;;;;21.00;14.23;;;14.50;87.50;;;;;;4999179;28;20333;-92
2023/08/10 06:52:41;;;;;;;17.03;15.10;;;14.50;87.00;;;;;;4997976;28;20236;-91
2023/08/10 06:55:08;;;;;;;17.90;14.10;;;14.50;86.70;;;;;;4999292;28;20288;-91
2023/08/10 06:57:35;;;;;;;16.50;14.80;;;14.60;86.10;;;;;;4998548;28;20212;-92
2023/08/10 07:00:05;;;;;;;20.08;13.95;;;14.70;86.20;;;;;;4999447;28;20214;-89
2023/08/10 07:02:31;;;;;;;15.43;13.83;;;14.80;86.00;;;;;;5018363;28;20248;-89
2023/08/10 07:04:57;;;;;;;19.35;14.35;;;14.80;85.50;;;;;;5018607;28;20754;-89
2023/08/10 07:07:22;;;;;;;20.15;14.80;;;14.80;85.70;;;;;;5015222;28;20261;-91
2023/08/10 07:09:48;;;;;;;19.58;14.35;;;14.80;85.30;;;;;;5014585;28;20641;-92
2023/08/10 07:12:13;;;;;;;17.88;14.63;;;14.80;84.00;;;;;;5017449;28;20183;-91
2023/08/10 07:14:39;;;;;;;16.05;13.68;;;14.80;84.50;;;;;;4999890;28;20197;-91
2023/08/10 07:17:04;;;;;;;15.80;14.18;;;14.90;84.30;;;;;;4997774;28;20185;-91
2023/08/10 07:19:30;;;;;;;16.23;13.68;;;15.00;84.40;;;;;;4998806;28;20182;-91
2023/08/10 07:21:55;;;;;;;17.67;14.20;;;15.10;84.90;;;;;;4997696;28;20272;-91
2023/08/10 07:24:25;;;;;;;16.08;14.68;;;15.10;84.40;;;;;;4997149;28;20201;-91
2023/08/10 07:26:52;;;;;;;16.20;14.65;;;15.20;83.30;;;;;;4997219;28;20197;-91
2023/08/10 07:29:18;;;;;;;17.30;14.95;;;15.10;82.70;;;;;;4997391;28;20566;-91
2023/08/10 07:31:44;;;;;;;19.77;14.98;;;15.20;82.60;;;;;;4998296;28;20266;-90
2023/08/10 07:34:10;;;;;;;17.90;15.57;;;15.30;83.20;;;;;;5015237;28;20186;-92
2023/08/10 07:36:36;;;;;;;20.90;15.07;;;15.30;82.70;;;;;;4998319;28;20228;-92
2023/08/10 07:39:01;;;;;;;23.65;16.10;;;15.30;82.50;;;;;;4997234;28;20173;-90
2023/08/10 07:41:27;;;;;;;17.75;15.55;;;15.30;81.80;;;;;;5014327;28;20177;-91
2023/08/10 07:43:52;;;;;;;20.27;16.00;;;15.30;80.90;;;;;;5013939;28;20675;-90
2023/08/10 07:46:18;;;;;;;19.00;17.23;;;15.40;81.70;;;;;;5013661;28;20193;-90
2023/08/10 07:48:45;;;;;;;18.00;16.40;;;15.60;81.70;;;;;;5014708;28;20174;-91
2023/08/10 07:51:11;;;;;;;18.52;16.77;;;15.90;81.60;;;;;;4997439;28;20201;-91
2023/08/10 07:53:37;;;;;;;19.02;16.98;;;16.10;79.30;;;;;;5014424;28;20200;-91
2023/08/10 07:56:03;;;;;;;18.45;16.77;;;16.00;78.10;;;;;;5014915;28;20689;-91
2023/08/10 07:58:29;;;;;;;17.83;16.20;;;15.90;78.60;;;;;;4996477;28;20200;-91
2023/08/10 08:00:55;;;;;;;19.45;17.70;;;16.00;78.60;;;;;;5014226;28;20599;-91
2023/08/10 08:03:21;;;;;;;19.60;17.50;;;16.00;77.00;;;;;;4996477;28;20173;-91
2023/08/10 08:05:47;;;;;;;19.65;17.55;;;16.00;77.30;;;;;;4996305;28;20748;-90
2023/08/10 08:08:12;;;;;;;18.55;16.50;;;16.30;77.00;;;;;;5014795;28;20193;-90
2023/08/10 08:10:38;;;;;;;18.90;16.98;;;16.30;75.90;;;;;;4996147;28;20550;-91
2023/08/10 08:13:06;;;;;;;19.00;17.17;;;16.50;77.00;;;;;;4997755;28;20184;-90
2023/08/10 08:15:35;;;;;;;18.83;17.05;;;16.40;76.70;;;;;;4999968;28;20197;-90
2023/08/10 08:18:39;;;;;;;19.10;17.13;;;16.30;76.70;;;;;;5018615;28;20196;-90
2023/08/10 08:21:06;;;;;;;17.38;15.80;;;16.50;76.70;;;;;;5018204;28;20256;-90
2023/08/10 08:23:31;;;;;;;22.13;17.77;;;16.70;77.30;;;;;;5017889;28;20236;-90
2023/08/10 08:25:57;;;;;;;28.63;25.77;;;16.70;76.10;;;;;;5017635;28;20686;-90
2023/08/10 08:28:23;;;;;;;29.85;26.75;;;16.70;74.90;;;;;;5000070;28;20542;-89
2023/08/10 08:30:50;;;;;;;32.40;29.70;;;17.00;75.50;;;;;;5017521;28;20181;-90
2023/08/10 08:33:16;;;;;;;32.58;29.55;;;16.90;74.00;;;;;;5017499;28;20193;-91
2023/08/10 08:35:45;;;;;;;20.15;18.20;;;16.70;74.00;;;;;;4999878;28;20193;-91
2023/08/10 08:38:11;;;;;;;20.23;18.35;;;16.60;74.70;;;;;;4999963;28;20177;-89
2023/08/10 08:40:37;;;;;;;29.60;26.83;;;16.50;73.90;;;;;;5002360;28;20673;-92
2023/08/10 08:43:04;;;;;;;30.40;27.95;;;16.70;75.10;;;;;;5000719;28;20174;-88
2023/08/10 08:45:30;;;;;;;30.85;27.92;;;16.80;72.90;;;;;;5016779;28;20209;-88
2023/08/10 08:47:56;;;;;;;20.15;18.20;;;16.90;74.10;;;;;;5016885;28;20174;-88
2023/08/10 08:50:22;;;;;;;20.58;18.70;;;16.80;72.80;;;;;;5016912;28;20216;-88
2023/08/10 08:52:50;;;;;;;26.40;23.85;;;16.70;72.50;;;;;;5016799;28;20166;-88
2023/08/10 08:55:16;;;;;;;29.48;26.85;;;16.80;73.10;;;;;;5016776;28;20201;-88
2023/08/10 08:57:42;;;;;;;21.85;17.90;;;17.00;72.50;;;;;;5016702;28;20189;-88
2023/08/10 09:00:08;;;;;;;19.17;17.48;;;17.20;71.70;;;;;;5016644;28;20173;-89
2023/08/10 09:02:35;;;;;;;19.75;17.90;;;17.20;70.90;;;;;;5016509;28;20264;-89
2023/08/10 09:05:02;;;;;;;30.02;26.85;;;17.20;70.60;;;;;;5016456;28;20646;-88
2023/08/10 09:07:31;;;;;;;30.05;27.30;;;17.00;70.30;;;;;;5016579;28;20177;-89
2023/08/10 09:09:57;;;;;;;19.85;18.10;;;17.10;71.60;;;;;;4999164;28;20528;-90
2023/08/10 09:12:38;;;;;;;18.50;16.92;;;17.00;70.60;;;;;;5016636;28;20180;-90
2023/08/10 09:15:10;;;;;;;19.77;17.67;;;17.20;72.50;;;;;;5016645;28;20194;-88
2023/08/10 09:17:48;;;;;;;18.73;17.10;;;17.10;71.40;;;;;;5016727;28;20174;-88
2023/08/10 09:20:25;;;;;;;21.05;16.23;;;17.00;71.60;;;;;;5016273;28;20160;-89
2023/08/10 09:22:58;;;;;;;17.67;16.08;;;17.10;73.10;;;;;;5016745;28;20154;-88
2023/08/10 09:25:25;;;;;;;19.45;17.10;;;17.60;72.90;;;;;;5015017;28;20205;-90
2023/08/10 09:27:52;;;;;;;26.70;16.60;;;17.80;74.00;;;;;;5016310;28;20185;-88
2023/08/10 09:30:18;;;;;;;19.55;17.67;;;17.90;71.80;;;;;;4998768;28;20251;-90
2023/08/10 09:32:45;;;;;;;22.55;19.02;;;18.00;70.60;;;;;;5016404;28;20197;-88
2023/08/10 09:35:15;;;;;;;19.55;17.58;;;17.90;68.50;;;;;;5016158;28;20204;-88
2023/08/10 09:37:42;;;;;;;22.45;18.33;;;18.10;71.00;;;;;;4998419;28;20184;-89
2023/08/10 09:40:11;;;;;;;22.77;18.45;;;18.20;70.00;;;;;;5016040;28;20181;-89
2023/08/10 09:42:39;;;;;;;19.90;18.13;;;18.30;68.70;;;;;;5015825;28;20178;-89
2023/08/10 09:45:08;;;;;;;20.65;18.63;;;18.30;69.00;;;;;;5015749;28;20264;-89
2023/08/10 09:47:36;;;;;;;21.67;19.55;;;17.90;68.80;;;;;;5016044;28;20649;-89
2023/08/10 09:50:05;;;;;;;20.70;18.73;;;17.60;68.30;;;;;;5016304;28;20209;-88
2023/08/10 09:52:33;;;;;;;21.15;19.15;;;17.90;70.20;;;;;;5016075;28;20174;-88
2023/08/10 09:54:59;;;;;;;20.60;18.75;;;17.90;70.00;;;;;;5015874;28;20220;-89
2023/08/10 09:57:25;;;;;;;22.10;20.00;;;18.20;69.20;;;;;;5015627;28;20181;-88
2023/08/10 09:59:52;;;;;;;22.15;20.05;;;18.30;66.80;;;;;;4998423;28;20193;-89
2023/08/10 10:02:20;;;;;;;22.85;20.67;;;18.50;64.90;;;;;;4997967;28;20272;-88
2023/08/10 10:04:46;;;;;;;22.73;20.30;;;18.30;65.70;;;;;;5015667;28;20190;-88
2023/08/10 10:07:16;;;;;;;23.40;21.30;;;18.60;67.60;;;;;;5015555;28;20213;-89
2023/08/10 10:09:43;;;;;;;22.58;20.33;;;18.40;67.10;;;;;;4999179;28;20177;-91
2023/08/10 10:12:11;;;;;;;21.95;19.75;;;18.30;66.70;;;;;;4997882;28;20174;-90
2023/08/10 10:14:42;;;;;;;21.75;19.52;;;18.30;66.10;;;;;;4997922;28;20348;-91
2023/08/10 10:17:11;;;;;;;22.92;20.08;;;17.80;67.40;;;;;;5016279;28;20173;-91
2023/08/10 10:19:41;;;;;;;21.65;19.60;;;17.50;67.70;;;;;;4998112;28;20196;-91
2023/08/10 10:22:08;;;;;;;21.85;19.85;;;17.80;69.50;;;;;;5015524;28;20649;-92
2023/08/10 10:24:34;;;;;;;21.98;20.13;;;18.20;68.50;;;;;;5015934;28;20193;-91
2023/08/10 10:27:05;;;;;;;27.92;20.35;;;18.40;65.50;;;;;;5015105;28;20197;-92
2023/08/10 10:29:35;;;;;;;22.40;20.52;;;18.70;66.30;;;;;;4997835;28;20542;-91
2023/08/10 10:32:20;;;;;;;21.30;19.17;;;18.80;66.10;;;;;;5015359;28;20172;-91
2023/08/10 10:34:48;;;;;;;19.83;17.92;;;19.20;63.20;;;;;;5015043;28;20208;-91
2023/08/10 10:37:37;;;;;;;20.40;18.38;;;19.00;62.30;;;;;;4997290;28;20193;-92
2023/08/10 10:40:18;;;;;;;19.90;17.98;;;19.20;63.10;;;;;;4997507;28;20628;-91
2023/08/10 10:43:08;;;;;;;20.92;18.90;;;20.00;62.90;;;;;;4997399;28;20212;-91
2023/08/10 10:45:43;;;;;;;19.70;17.65;;;19.60;61.20;;;;;;5009700;28;20693;-91
2023/08/10 10:48:15;;;;;;;21.02;19.02;;;19.60;61.20;;;;;;5014860;28;20608;-91
2023/08/10 10:50:41;;;;;;;21.02;19.00;;;19.30;61.20;;;;;;4997400;28;20209;-91
2023/08/10 10:53:13;;;;;;;22.23;19.15;;;18.80;63.40;;;;;;4997389;28;20247;-92
2023/08/10 10:55:44;;;;;;;20.42;18.50;;;18.60;64.50;;;;;;5014691;28;20200;-90
2023/08/10 10:58:11;;;;;;;19.35;17.55;;;18.70;65.50;;;;;;5014714;28;20181;-90
2023/08/10 11:00:37;;;;;;;19.48;17.70;;;18.80;64.70;;;;;;5014522;28;20201;-91
2023/08/10 11:03:04;;;;;;;21.08;18.25;;;19.20;65.70;;;;;;5014643;28;20178;-91
2023/08/10 11:05:30;;;;;;;21.23;19.23;;;19.90;65.70;;;;;;5014415;28;20205;-92
2023/08/10 11:08:03;;;;;;;21.73;19.52;;;19.70;62.00;;;;;;4999268;28;20256;-91
2023/08/10 11:10:29;;;;;;;21.85;19.77;;;20.20;61.20;;;;;;4997119;28;20166;-91
2023/08/10 11:12:55;;;;;;;19.90;18.35;;;20.50;61.30;;;;;;4997136;28;20177;-91
2023/08/10 11:15:21;;;;;;;20.38;18.60;;;20.80;62.50;;;;;;4996981;28;20204;-91
2023/08/10 11:17:49;;;;;;;21.58;18.50;;;20.70;59.70;;;;;;4996983;28;20184;-91
2023/08/10 11:20:17;;;;;;;20.30;17.95;;;20.50;60.20;;;;;;5014198;28;20196;-91
2023/08/10 11:22:43;;;;;;;21.20;19.42;;;20.70;59.90;;;;;;5014574;28;20172;-92
2023/08/10 11:25:11;;;;;;;21.17;19.25;;;20.40;60.80;;;;;;5014271;28;20268;-92
2023/08/10 11:27:39;;;;;;;21.08;19.17;;;20.70;60.50;;;;;;5014302;28;20177;-91
2023/08/10 11:30:06;;;;;;;21.75;19.80;;;20.20;59.90;;;;;;5014454;28;20665;-92
2023/08/10 11:32:31;;;;;;;22.10;19.55;;;20.20;57.40;;;;;;4996909;28;20683;-91
2023/08/10 11:34:57;;;;;;;21.38;19.50;;;20.30;59.50;;;;;;4996321;28;20280;-91
2023/08/10 11:37:30;;;;;;;21.50;19.45;;;20.00;60.50;;;;;;4996467;28;20192;-91
2023/08/10 11:40:03;;;;;;;23.52;19.52;;;20.40;60.80;;;;;;5014514;28;20170;-93
2023/08/10 11:42:37;;;;;;;21.80;19.50;;;20.70;60.00;;;;;;4996379;28;20170;-91
2023/08/10 11:45:21;;;;;;;22.98;19.40;;;20.30;60.80;;;;;;4996545;28;20220;-92
2023/08/10 11:47:58;;;;;;;21.05;19.02;;;20.50;62.10;;;;;;5014299;28;20154;-92
2023/08/10 11:50:26;;;;;;;20.77;18.70;;;20.60;60.00;;;;;;5014238;28;20157;-92
2023/08/10 11:52:54;;;;;;;20.33;18.60;;;20.90;60.00;;;;;;4997569;28;20173;-93
2023/08/10 11:55:21;;;;;;;20.67;18.67;;;20.90;56.90;;;;;;5015875;28;20203;-92
2023/08/10 11:57:52;;;;;;;20.35;18.55;;;21.30;58.90;;;;;;4996304;28;20744;-92
2023/08/10 12:00:28;;;;;;;20.23;18.27;;;21.40;58.70;;;;;;4999464;28;20565;-89
2023/08/10 12:03:15;;;;;;;20.80;18.63;;;21.80;58.30;;;;;;5000372;28;20177;-89
2023/08/10 12:05:43;;;;;;;21.10;19.10;;;21.30;56.90;;;;;;5015316;28;20270;-90
2023/08/10 12:08:28;;;;;;;20.92;18.95;;;20.60;60.00;;;;;;5014518;28;20165;-90
2023/08/10 12:11:02;;;;;;;21.17;19.25;;;20.30;60.70;;;;;;5014761;28;20165;-89
2023/08/10 12:13:28;;;;;;;20.45;18.27;;;20.60;60.10;;;;;;5014421;28;20207;-89
2023/08/10 12:15:55;;;;;;;19.55;17.50;;;20.90;60.60;;;;;;5013908;28;20197;-90
2023/08/10 12:18:22;;;;;;;21.13;19.02;;;20.30;60.70;;;;;;5013904;28;20207;-90
2023/08/10 12:20:51;;;;;;;20.38;18.75;;;20.20;61.10;;;;;;4996483;28;20177;-89
2023/08/10 12:23:17;;;;;;;20.27;18.52;;;20.40;61.60;;;;;;5014108;28;20170;-89
2023/08/10 12:25:45;;;;;;;20.58;18.52;;;20.60;60.30;;;;;;5013934;28;20197;-89
2023/08/10 12:28:11;;;;;;;20.08;18.30;;;20.80;61.20;;;;;;5013713;28;20169;-88
2023/08/10 12:30:37;;;;;;;21.60;18.83;;;21.00;61.40;;;;;;5013943;28;20181;-89
2023/08/10 12:33:04;;;;;;;19.88;18.23;;;21.00;59.40;;;;;;5013688;28;20268;-89